createdAt,value
2022-11-02T00:01:44.391Z,10.50
2022-11-02T00:04:11.091Z,10.50
2022-11-02T00:06:37.823Z,10.50
2022-11-02T00:09:04.772Z,10.60
2022-11-02T00:11:31.467Z,10.60
2022-11-02T00:13:58.073Z,10.60
2022-11-02T00:16:25.416Z,10.60
2022-11-02T00:18:58.375Z,10.70
2022-11-02T00:21:27.011Z,10.80
2022-11-02T00:23:56.105Z,10.90
2022-11-02T00:26:22.839Z,10.90
2022-11-02T00:28:49.674Z,10.90
2022-11-02T00:31:16.261Z,10.90
2022-11-02T00:33:42.847Z,10.90
2022-11-02T00:36:09.720Z,10.90
2022-11-02T00:38:36.557Z,10.90
2022-11-02T16:59:53.488Z,10.90
2022-11-02T17:02:30.598Z,10.80
2022-11-02T17:05:02.350Z,10.60
2022-11-02T17:07:38.543Z,10.50
2022-11-02T17:10:06.693Z,10.50
2022-11-02T17:12:35.646Z,10.50
2022-11-02T17:15:11.276Z,10.40
2022-11-02T17:17:39.745Z,10.50
2022-11-02T17:20:15.103Z,10.40
2022-11-02T17:22:56.869Z,10.40
2022-11-02T17:25:25.291Z,10.30
2022-11-02T17:27:53.538Z,10.30
2022-11-02T17:30:35.450Z,10.40
2022-11-02T17:33:12.235Z,10.40
2022-11-02T17:35:46.190Z,10.40
2022-11-02T17:38:12.704Z,10.30
2022-11-02T17:40:39.476Z,10.20
2022-11-02T17:43:06.081Z,10.10
2022-11-02T17:45:37.382Z,10.10
2022-11-02T17:48:07.932Z,10.00
2022-11-02T17:50:36.654Z,10.10
2022-11-02T17:53:04.999Z,10.00
2022-11-02T17:55:34.575Z,9.80
2022-11-02T17:58:01.297Z,9.70
2022-11-02T18:00:28.717Z,9.60
2022-11-02T18:03:00.114Z,9.60
2022-11-02T18:05:33.947Z,9.70
2022-11-02T18:08:00.496Z,9.60
2022-11-02T18:10:46.864Z,9.60
2022-11-02T18:13:16.364Z,9.60
2022-11-02T18:15:43.108Z,9.80
2022-11-02T18:18:10.252Z,9.80
2022-11-02T18:20:41.472Z,9.70
2022-11-02T18:23:15.428Z,9.60
2022-11-02T18:25:42.277Z,9.70
2022-11-02T18:28:09.224Z,9.70
2022-11-02T18:30:35.886Z,9.70
2022-11-02T18:33:03.253Z,9.60
2022-11-02T18:35:29.926Z,9.60
2022-11-02T18:37:56.633Z,9.50
2022-11-02T18:40:23.236Z,9.60
2022-11-02T18:42:50.090Z,9.50
2022-11-02T18:45:16.979Z,9.50
2022-11-02T18:47:43.959Z,9.50
2022-11-02T18:50:12.272Z,9.50
2022-11-02T18:52:39.463Z,9.50
2022-11-02T18:55:06.732Z,9.60
2022-11-02T18:57:33.571Z,9.60
2022-11-02T19:00:02.695Z,9.60
2022-11-02T19:02:29.677Z,9.60
2022-11-02T19:04:56.428Z,9.60
2022-11-02T19:07:41.417Z,9.50
2022-11-02T19:10:08.391Z,9.50
2022-11-02T19:12:35.098Z,9.50
2022-11-02T19:15:02.094Z,9.50
2022-11-02T19:17:28.782Z,9.60
2022-11-02T19:19:55.453Z,9.60
2022-11-02T19:22:24.728Z,9.60
2022-11-02T19:24:51.906Z,9.60
2022-11-02T19:27:21.208Z,9.60
2022-11-02T19:29:47.913Z,9.60
2022-11-02T19:32:16.940Z,9.60
2022-11-02T19:34:44.291Z,9.50
2022-11-02T19:37:11.320Z,9.40
2022-11-02T19:39:38.009Z,9.40
2022-11-02T19:42:07.090Z,9.30
2022-11-02T19:44:38.169Z,9.30
2022-11-02T19:47:08.941Z,9.30
2022-11-02T19:49:35.597Z,9.20
2022-11-02T19:52:02.306Z,9.20
2022-11-02T19:54:28.985Z,9.20
2022-11-02T19:56:55.560Z,9.10
2022-11-02T19:59:22.491Z,9.10
2022-11-02T20:01:50.504Z,9.10
2022-11-02T20:04:17.679Z,9.00
2022-11-02T20:06:45.044Z,9.00
2022-11-02T20:09:17.878Z,9.00
2022-11-02T20:11:46.227Z,8.90
2022-11-02T20:14:14.478Z,8.90
2022-11-02T20:16:41.667Z,8.90
2022-11-02T20:19:09.031Z,8.80
2022-11-02T20:21:41.627Z,8.80
2022-11-02T20:24:09.709Z,8.80
2022-11-02T20:26:38.084Z,8.70
2022-11-02T20:29:06.278Z,8.70
2022-11-02T20:31:36.350Z,8.70
2022-11-02T20:34:04.436Z,8.70
2022-11-02T20:36:31.121Z,8.60
2022-11-02T20:38:58.181Z,8.60
2022-11-02T20:41:26.019Z,8.50
2022-11-02T20:43:55.312Z,8.50
2022-11-02T20:46:44.511Z,8.50
2022-11-02T20:49:29.057Z,8.50
2022-11-02T20:52:00.991Z,8.50
2022-11-02T20:54:29.658Z,8.50
2022-11-02T20:56:56.881Z,8.50
2022-11-02T20:59:23.452Z,8.40
2022-11-02T21:01:50.107Z,8.40
2022-11-02T21:04:20.692Z,8.30
2022-11-02T21:06:49.823Z,8.40
2022-11-02T21:09:17.142Z,8.30
2022-11-02T21:12:02.504Z,8.80
2022-11-02T21:14:29.064Z,9.20
2022-11-02T21:16:55.675Z,9.40
2022-11-02T21:19:22.400Z,9.50
2022-11-02T21:21:48.994Z,9.30
2022-11-02T21:24:15.690Z,9.50
2022-11-02T21:26:42.291Z,9.50
2022-11-02T21:29:09.565Z,9.60
2022-11-02T21:31:36.292Z,9.60
2022-11-02T21:34:03.837Z,9.70
2022-11-02T21:36:30.546Z,9.70
2022-11-02T21:38:58.553Z,9.60
2022-11-02T21:41:28.021Z,9.50
2022-11-02T21:43:55.506Z,9.30
2022-11-02T21:46:22.493Z,9.10
2022-11-02T21:48:49.067Z,8.90
2022-11-02T21:51:18.563Z,8.80
2022-11-02T21:53:46.241Z,8.60
2022-11-02T21:56:25.549Z,8.50
2022-11-02T21:58:53.717Z,8.40
2022-11-02T22:01:44.893Z,8.30
2022-11-02T22:04:24.681Z,8.30
2022-11-02T22:06:55.247Z,8.20
2022-11-02T22:09:22.138Z,8.20
2022-11-02T22:12:09.059Z,8.10
2022-11-02T22:14:36.771Z,8.00
2022-11-02T22:17:11.375Z,8.00
2022-11-02T22:19:49.459Z,8.00
2022-11-02T22:22:16.063Z,8.00
2022-11-02T22:24:44.885Z,8.00
2022-11-02T22:27:12.199Z,8.00
2022-11-02T22:29:38.820Z,7.90
2022-11-02T22:32:05.648Z,7.90
2022-11-02T22:34:32.364Z,8.00
2022-11-02T22:37:18.916Z,8.00
2022-11-02T22:39:45.506Z,7.90
2022-11-02T22:42:12.506Z,7.90
2022-11-02T22:44:39.117Z,7.90
2022-11-02T22:47:05.679Z,7.80
2022-11-02T22:49:32.283Z,7.80
2022-11-02T22:51:58.853Z,7.80
2022-11-02T22:54:25.439Z,7.80
2022-11-02T22:56:51.999Z,7.80
2022-11-02T22:59:19.038Z,7.80
2022-11-02T23:01:45.836Z,7.80
2022-11-02T23:04:12.893Z,7.80
2022-11-02T23:06:39.736Z,7.70
2022-11-02T23:09:06.427Z,7.70
2022-11-02T23:11:36.251Z,7.60
2022-11-02T23:14:05.928Z,7.60
2022-11-02T23:16:35.361Z,7.60
2022-11-02T23:19:30.952Z,7.60
2022-11-02T23:22:21.915Z,7.50
2022-11-02T23:25:13.909Z,7.50
2022-11-02T23:28:01.432Z,7.40
2022-11-02T23:30:52.571Z,7.30
2022-11-02T23:33:19.980Z,7.20
2022-11-02T23:36:05.408Z,7.20
2022-11-02T23:38:50.721Z,7.10
2022-11-02T23:41:19.008Z,7.00
2022-11-02T23:43:46.293Z,6.90
2022-11-02T23:46:13.061Z,6.70
2022-11-02T23:48:41.886Z,6.80
2022-11-02T23:51:28.556Z,6.70
2022-11-02T23:54:14.077Z,6.70
2022-11-02T23:56:43.619Z,6.60
2022-11-02T23:59:15.380Z,6.70
